sensor_id;sensor_type;location;lat;lon;timestamp;temperature;humidity
28524;DHT22;15734;50.904;6.922;2023-07-13T00:02:16;17.60;99.90
28524;DHT22;15734;50.904;6.922;2023-07-13T00:04:42;17.70;99.90
28524;DHT22;15734;50.904;6.922;2023-07-13T00:07:08;17.50;99.90
28524;DHT22;15734;50.904;6.922;2023-07-13T00:09:34;17.50;99.90
28524;DHT22;15734;50.904;6.922;2023-07-13T00:12:01;17.30;99.90
28524;DHT22;15734;50.904;6.922;2023-07-13T00:14:28;17.10;99.90
28524;DHT22;15734;50.904;6.922;2023-07-13T00:16:54;17.00;99.90
28524;DHT22;15734;50.904;6.922;2023-07-13T00:19:19;17.00;99.90
28524;DHT22;15734;50.904;6.922;2023-07-13T00:21:45;16.90;99.90
28524;DHT22;15734;50.904;6.922;2023-07-13T00:24:14;16.70;99.90
28524;DHT22;15734;50.904;6.922;2023-07-13T00:26:40;16.70;99.90
28524;DHT22;15734;50.904;6.922;2023-07-13T00:29:05;16.70;99.90
28524;DHT22;15734;50.904;6.922;2023-07-13T00:31:34;16.60;99.90
28524;DHT22;15734;50.904;6.922;2023-07-13T00:34:01;16.60;99.90
28524;DHT22;15734;50.904;6.922;2023-07-13T00:36:27;16.60;99.90
28524;DHT22;15734;50.904;6.922;2023-07-13T00:38:52;16.70;99.90
28524;DHT22;15734;50.904;6.922;2023-07-13T00:41:19;16.80;99.90
28524;DHT22;15734;50.904;6.922;2023-07-13T00:43:44;16.70;99.90
28524;DHT22;15734;50.904;6.922;2023-07-13T00:46:21;16.80;99.90
28524;DHT22;15734;50.904;6.922;2023-07-13T00:48:48;16.70;99.90
28524;DHT22;15734;50.904;6.922;2023-07-13T00:51:17;16.70;99.90
28524;DHT22;15734;50.904;6.922;2023-07-13T00:53:44;16.80;99.90
28524;DHT22;15734;50.904;6.922;2023-07-13T00:56:10;16.90;99.90
28524;DHT22;15734;50.904;6.922;2023-07-13T00:58:36;16.90;99.90
28524;DHT22;15734;50.904;6.922;2023-07-13T01:01:02;16.90;99.90
28524;DHT22;15734;50.904;6.922;2023-07-13T01:03:27;16.90;99.90
28524;DHT22;15734;50.904;6.922;2023-07-13T01:05:53;17.00;99.90
28524;DHT22;15734;50.904;6.922;2023-07-13T01:08:20;17.00;99.90
28524;DHT22;15734;50.904;6.922;2023-07-13T01:10:56;17.10;99.90
28524;DHT22;15734;50.904;6.922;2023-07-13T01:13:22;17.10;99.90
28524;DHT22;15734;50.904;6.922;2023-07-13T01:15:50;16.90;99.90
28524;DHT22;15734;50.904;6.922;2023-07-13T01:18:26;17.00;99.90
28524;DHT22;15734;50.904;6.922;2023-07-13T01:21:01;16.90;99.90
28524;DHT22;15734;50.904;6.922;2023-07-13T01:23:28;16.80;99.90
28524;DHT22;15734;50.904;6.922;2023-07-13T01:25:54;16.80;99.90
28524;DHT22;15734;50.904;6.922;2023-07-13T01:28:21;16.80;99.90
28524;DHT22;15734;50.904;6.922;2023-07-13T01:30:47;16.80;99.90
28524;DHT22;15734;50.904;6.922;2023-07-13T01:33:15;16.80;99.90
28524;DHT22;15734;50.904;6.922;2023-07-13T01:35:42;16.70;99.90
28524;DHT22;15734;50.904;6.922;2023-07-13T01:38:07;16.70;99.90
28524;DHT22;15734;50.904;6.922;2023-07-13T01:40:34;16.80;99.90
28524;DHT22;15734;50.904;6.922;2023-07-13T01:43:00;16.80;99.90
28524;DHT22;15734;50.904;6.922;2023-07-13T01:45:26;16.80;99.90
28524;DHT22;15734;50.904;6.922;2023-07-13T01:47:51;16.80;99.90
28524;DHT22;15734;50.904;6.922;2023-07-13T01:50:17;16.80;99.90
28524;DHT22;15734;50.904;6.922;2023-07-13T01:52:43;16.80;99.90
28524;DHT22;15734;50.904;6.922;2023-07-13T01:55:08;16.70;99.90
28524;DHT22;15734;50.904;6.922;2023-07-13T01:57:34;16.80;99.90
28524;DHT22;15734;50.904;6.922;2023-07-13T02:00:03;16.70;99.90
28524;DHT22;15734;50.904;6.922;2023-07-13T02:02:30;16.70;99.90
28524;DHT22;15734;50.904;6.922;2023-07-13T02:04:55;16.70;99.90
28524;DHT22;15734;50.904;6.922;2023-07-13T02:07:21;16.60;99.90
28524;DHT22;15734;50.904;6.922;2023-07-13T02:09:47;16.50;99.90
28524;DHT22;15734;50.904;6.922;2023-07-13T02:12:12;16.40;99.90
28524;DHT22;15734;50.904;6.922;2023-07-13T02:14:38;16.30;99.90
28524;DHT22;15734;50.904;6.922;2023-07-13T02:17:04;16.10;99.90
28524;DHT22;15734;50.904;6.922;2023-07-13T02:19:30;16.10;99.90
28524;DHT22;15734;50.904;6.922;2023-07-13T02:21:55;16.00;99.90
28524;DHT22;15734;50.904;6.922;2023-07-13T02:24:21;16.00;99.90
28524;DHT22;15734;50.904;6.922;2023-07-13T02:26:47;16.00;99.90
28524;DHT22;15734;50.904;6.922;2023-07-13T02:29:13;15.80;99.90
28524;DHT22;15734;50.904;6.922;2023-07-13T02:31:38;15.70;99.90
28524;DHT22;15734;50.904;6.922;2023-07-13T02:34:04;15.60;99.90
28524;DHT22;15734;50.904;6.922;2023-07-13T02:36:31;15.50;99.90
28524;DHT22;15734;50.904;6.922;2023-07-13T02:39:00;15.30;99.90
28524;DHT22;15734;50.904;6.922;2023-07-13T02:41:26;15.30;99.90
28524;DHT22;15734;50.904;6.922;2023-07-13T02:43:52;15.30;99.90
28524;DHT22;15734;50.904;6.922;2023-07-13T02:46:17;15.20;99.90
28524;DHT22;15734;50.904;6.922;2023-07-13T02:48:44;15.20;99.90
28524;DHT22;15734;50.904;6.922;2023-07-13T02:51:10;15.10;99.90
28524;DHT22;15734;50.904;6.922;2023-07-13T02:53:36;15.10;99.90
28524;DHT22;15734;50.904;6.922;2023-07-13T02:56:02;15.10;99.90
28524;DHT22;15734;50.904;6.922;2023-07-13T02:58:27;15.10;99.90
28524;DHT22;15734;50.904;6.922;2023-07-13T03:00:53;15.00;99.90
28524;DHT22;15734;50.904;6.922;2023-07-13T03:03:19;15.00;99.90
28524;DHT22;15734;50.904;6.922;2023-07-13T03:05:45;14.90;99.90
28524;DHT22;15734;50.904;6.922;2023-07-13T03:08:15;14.90;99.90
28524;DHT22;15734;50.904;6.922;2023-07-13T03:10:41;14.80;99.90
28524;DHT22;15734;50.904;6.922;2023-07-13T03:13:07;14.80;99.90
28524;DHT22;15734;50.904;6.922;2023-07-13T03:15:33;14.80;99.90
28524;DHT22;15734;50.904;6.922;2023-07-13T03:17:58;14.80;99.90
28524;DHT22;15734;50.904;6.922;2023-07-13T03:20:24;14.90;99.90
28524;DHT22;15734;50.904;6.922;2023-07-13T03:22:49;14.80;99.90
28524;DHT22;15734;50.904;6.922;2023-07-13T03:25:15;14.80;99.90
28524;DHT22;15734;50.904;6.922;2023-07-13T03:27:40;14.80;99.90
28524;DHT22;15734;50.904;6.922;2023-07-13T03:30:06;14.90;99.90
28524;DHT22;15734;50.904;6.922;2023-07-13T03:32:32;14.90;99.90
28524;DHT22;15734;50.904;6.922;2023-07-13T03:34:58;14.90;99.90
28524;DHT22;15734;50.904;6.922;2023-07-13T03:37:24;14.90;99.90
28524;DHT22;15734;50.904;6.922;2023-07-13T03:39:49;14.80;99.90
28524;DHT22;15734;50.904;6.922;2023-07-13T03:42:15;14.90;99.90
28524;DHT22;15734;50.904;6.922;2023-07-13T03:44:41;14.90;99.90
28524;DHT22;15734;50.904;6.922;2023-07-13T03:47:07;14.90;99.90
28524;DHT22;15734;50.904;6.922;2023-07-13T03:49:34;14.90;99.90
28524;DHT22;15734;50.904;6.922;2023-07-13T03:52:00;14.80;99.90
28524;DHT22;15734;50.904;6.922;2023-07-13T03:54:25;14.80;99.90
28524;DHT22;15734;50.904;6.922;2023-07-13T03:56:51;14.90;99.90
28524;DHT22;15734;50.904;6.922;2023-07-13T03:59:17;14.80;99.90
28524;DHT22;15734;50.904;6.922;2023-07-13T04:01:43;14.90;99.90
28524;DHT22;15734;50.904;6.922;2023-07-13T04:04:09;14.90;99.90
28524;DHT22;15734;50.904;6.922;2023-07-13T04:06:35;14.80;99.90
28524;DHT22;15734;50.904;6.922;2023-07-13T04:09:02;14.90;99.90
28524;DHT22;15734;50.904;6.922;2023-07-13T04:11:32;14.70;99.90
28524;DHT22;15734;50.904;6.922;2023-07-13T04:13:58;14.60;99.90
28524;DHT22;15734;50.904;6.922;2023-07-13T04:16:24;14.40;99.90
28524;DHT22;15734;50.904;6.922;2023-07-13T04:18:50;14.40;99.90
28524;DHT22;15734;50.904;6.922;2023-07-13T04:21:20;14.40;99.90
28524;DHT22;15734;50.904;6.922;2023-07-13T04:23:46;14.40;99.90
28524;DHT22;15734;50.904;6.922;2023-07-13T04:26:11;14.50;99.90
28524;DHT22;15734;50.904;6.922;2023-07-13T04:28:37;14.70;99.90
28524;DHT22;15734;50.904;6.922;2023-07-13T04:31:03;14.70;99.90
28524;DHT22;15734;50.904;6.922;2023-07-13T04:33:29;14.80;99.90
28524;DHT22;15734;50.904;6.922;2023-07-13T04:35:55;14.80;99.90
28524;DHT22;15734;50.904;6.922;2023-07-13T04:38:26;14.90;99.90
28524;DHT22;15734;50.904;6.922;2023-07-13T04:40:54;14.90;99.90
28524;DHT22;15734;50.904;6.922;2023-07-13T04:43:19;15.10;99.90
28524;DHT22;15734;50.904;6.922;2023-07-13T04:45:45;15.20;99.90
28524;DHT22;15734;50.904;6.922;2023-07-13T04:48:11;15.20;99.90
28524;DHT22;15734;50.904;6.922;2023-07-13T04:50:37;15.10;99.90
28524;DHT22;15734;50.904;6.922;2023-07-13T04:53:03;15.20;99.90
28524;DHT22;15734;50.904;6.922;2023-07-13T04:55:29;15.40;99.90
28524;DHT22;15734;50.904;6.922;2023-07-13T04:57:56;15.50;99.90
28524;DHT22;15734;50.904;6.922;2023-07-13T05:00:22;15.50;99.90
28524;DHT22;15734;50.904;6.922;2023-07-13T05:02:47;15.40;99.90
28524;DHT22;15734;50.904;6.922;2023-07-13T05:05:13;15.60;99.90
28524;DHT22;15734;50.904;6.922;2023-07-13T05:07:39;15.50;99.90
28524;DHT22;15734;50.904;6.922;2023-07-13T05:10:04;15.60;99.90
28524;DHT22;15734;50.904;6.922;2023-07-13T05:12:30;15.70;99.90
28524;DHT22;15734;50.904;6.922;2023-07-13T05:14:56;15.80;99.90
28524;DHT22;15734;50.904;6.922;2023-07-13T05:17:21;16.00;99.90
28524;DHT22;15734;50.904;6.922;2023-07-13T05:19:47;16.00;99.90
28524;DHT22;15734;50.904;6.922;2023-07-13T05:22:13;16.10;99.90
28524;DHT22;15734;50.904;6.922;2023-07-13T05:24:38;16.20;99.90
28524;DHT22;15734;50.904;6.922;2023-07-13T05:27:04;16.30;99.90
28524;DHT22;15734;50.904;6.922;2023-07-13T05:29:29;16.40;99.90
28524;DHT22;15734;50.904;6.922;2023-07-13T05:31:55;16.50;99.90
28524;DHT22;15734;50.904;6.922;2023-07-13T05:34:21;16.50;99.90
28524;DHT22;15734;50.904;6.922;2023-07-13T05:36:46;16.60;99.90
28524;DHT22;15734;50.904;6.922;2023-07-13T05:39:12;16.70;99.90
28524;DHT22;15734;50.904;6.922;2023-07-13T05:41:37;16.80;99.90
28524;DHT22;15734;50.904;6.922;2023-07-13T05:44:03;16.90;99.90
28524;DHT22;15734;50.904;6.922;2023-07-13T05:46:28;16.90;99.90
28524;DHT22;15734;50.904;6.922;2023-07-13T05:48:54;17.00;99.90
28524;DHT22;15734;50.904;6.922;2023-07-13T05:51:19;17.00;99.90
28524;DHT22;15734;50.904;6.922;2023-07-13T05:53:45;17.10;99.90
28524;DHT22;15734;50.904;6.922;2023-07-13T05:56:10;17.20;99.90
28524;DHT22;15734;50.904;6.922;2023-07-13T05:58:37;17.20;99.90
28524;DHT22;15734;50.904;6.922;2023-07-13T06:01:05;17.30;99.90
28524;DHT22;15734;50.904;6.922;2023-07-13T06:03:31;17.30;99.90
28524;DHT22;15734;50.904;6.922;2023-07-13T06:05:57;17.40;99.90
28524;DHT22;15734;50.904;6.922;2023-07-13T06:08:23;17.40;99.90
28524;DHT22;15734;50.904;6.922;2023-07-13T06:10:48;17.40;99.90
28524;DHT22;15734;50.904;6.922;2023-07-13T06:13:14;17.40;99.90
28524;DHT22;15734;50.904;6.922;2023-07-13T06:15:39;17.50;99.90
28524;DHT22;15734;50.904;6.922;2023-07-13T06:18:05;17.40;99.90
28524;DHT22;15734;50.904;6.922;2023-07-13T06:20:34;17.50;99.90
28524;DHT22;15734;50.904;6.922;2023-07-13T06:23:01;17.50;99.90
28524;DHT22;15734;50.904;6.922;2023-07-13T06:25:27;17.50;99.90
28524;DHT22;15734;50.904;6.922;2023-07-13T06:27:52;17.60;99.90
28524;DHT22;15734;50.904;6.922;2023-07-13T06:30:18;17.70;99.90
28524;DHT22;15734;50.904;6.922;2023-07-13T06:32:43;17.80;99.90
28524;DHT22;15734;50.904;6.922;2023-07-13T06:35:09;17.80;99.90
28524;DHT22;15734;50.904;6.922;2023-07-13T06:37:38;17.80;99.90
28524;DHT22;15734;50.904;6.922;2023-07-13T06:40:03;17.80;99.90
28524;DHT22;15734;50.904;6.922;2023-07-13T06:42:29;17.90;99.90
28524;DHT22;15734;50.904;6.922;2023-07-13T06:44:55;17.80;99.90
28524;DHT22;15734;50.904;6.922;2023-07-13T06:47:20;17.90;99.90
28524;DHT22;15734;50.904;6.922;2023-07-13T06:49:46;17.90;99.90
28524;DHT22;15734;50.904;6.922;2023-07-13T06:52:11;18.00;99.90
28524;DHT22;15734;50.904;6.922;2023-07-13T06:54:37;18.00;99.90
28524;DHT22;15734;50.904;6.922;2023-07-13T06:57:02;18.10;99.90
28524;DHT22;15734;50.904;6.922;2023-07-13T06:59:28;18.10;99.90
28524;DHT22;15734;50.904;6.922;2023-07-13T07:01:53;18.10;99.90
28524;DHT22;15734;50.904;6.922;2023-07-13T07:04:19;18.00;99.90
28524;DHT22;15734;50.904;6.922;2023-07-13T07:06:44;18.00;99.90
28524;DHT22;15734;50.904;6.922;2023-07-13T07:09:11;18.10;99.90
28524;DHT22;15734;50.904;6.922;2023-07-13T07:11:36;18.20;99.90
28524;DHT22;15734;50.904;6.922;2023-07-13T07:14:02;18.20;99.90
28524;DHT22;15734;50.904;6.922;2023-07-13T07:16:27;18.30;99.90
28524;DHT22;15734;50.904;6.922;2023-07-13T07:18:53;18.40;99.90
28524;DHT22;15734;50.904;6.922;2023-07-13T07:21:19;18.50;99.90
28524;DHT22;15734;50.904;6.922;2023-07-13T07:23:45;18.50;99.90
28524;DHT22;15734;50.904;6.922;2023-07-13T07:26:11;18.40;99.90
28524;DHT22;15734;50.904;6.922;2023-07-13T07:28:37;18.50;99.90
28524;DHT22;15734;50.904;6.922;2023-07-13T07:31:02;18.50;99.90
28524;DHT22;15734;50.904;6.922;2023-07-13T07:33:28;18.50;99.90
28524;DHT22;15734;50.904;6.922;2023-07-13T07:35:53;18.50;99.90
28524;DHT22;15734;50.904;6.922;2023-07-13T07:38:19;18.60;99.90
28524;DHT22;15734;50.904;6.922;2023-07-13T07:40:44;18.70;99.90
28524;DHT22;15734;50.904;6.922;2023-07-13T07:43:11;18.90;99.90
28524;DHT22;15734;50.904;6.922;2023-07-13T07:45:39;19.10;99.90
28524;DHT22;15734;50.904;6.922;2023-07-13T07:48:05;19.30;99.90
28524;DHT22;15734;50.904;6.922;2023-07-13T07:50:31;19.40;99.90
28524;DHT22;15734;50.904;6.922;2023-07-13T07:52:57;19.30;99.90
28524;DHT22;15734;50.904;6.922;2023-07-13T07:55:24;19.30;99.90
28524;DHT22;15734;50.904;6.922;2023-07-13T07:57:51;19.30;99.90
28524;DHT22;15734;50.904;6.922;2023-07-13T08:00:17;19.40;99.90
28524;DHT22;15734;50.904;6.922;2023-07-13T08:02:43;19.40;99.90
28524;DHT22;15734;50.904;6.922;2023-07-13T08:05:09;19.40;99.90
28524;DHT22;15734;50.904;6.922;2023-07-13T08:07:38;19.40;99.90
28524;DHT22;15734;50.904;6.922;2023-07-13T08:10:08;19.50;99.90
28524;DHT22;15734;50.904;6.922;2023-07-13T08:12:38;19.50;99.90
28524;DHT22;15734;50.904;6.922;2023-07-13T08:15:04;19.50;99.90
28524;DHT22;15734;50.904;6.922;2023-07-13T08:17:31;19.60;99.90
28524;DHT22;15734;50.904;6.922;2023-07-13T08:19:57;19.60;99.90
28524;DHT22;15734;50.904;6.922;2023-07-13T08:22:22;19.70;99.90
28524;DHT22;15734;50.904;6.922;2023-07-13T08:24:48;19.80;99.90
28524;DHT22;15734;50.904;6.922;2023-07-13T08:27:21;19.80;99.90
28524;DHT22;15734;50.904;6.922;2023-07-13T08:29:48;20.00;99.90
28524;DHT22;15734;50.904;6.922;2023-07-13T08:32:13;19.90;99.90
28524;DHT22;15734;50.904;6.922;2023-07-13T08:34:39;19.80;99.90
28524;DHT22;15734;50.904;6.922;2023-07-13T08:37:05;19.80;99.90
28524;DHT22;15734;50.904;6.922;2023-07-13T08:39:31;19.90;99.90
28524;DHT22;15734;50.904;6.922;2023-07-13T08:42:11;20.00;99.90
28524;DHT22;15734;50.904;6.922;2023-07-13T08:47:21;20.20;99.90
28524;DHT22;15734;50.904;6.922;2023-07-13T08:49:47;20.20;99.90
28524;DHT22;15734;50.904;6.922;2023-07-13T08:52:24;20.10;99.90
28524;DHT22;15734;50.904;6.922;2023-07-13T08:54:52;20.20;99.90
28524;DHT22;15734;50.904;6.922;2023-07-13T08:57:22;20.30;99.90
28524;DHT22;15734;50.904;6.922;2023-07-13T08:59:48;20.40;99.90
28524;DHT22;15734;50.904;6.922;2023-07-13T09:04:58;20.50;99.90
28524;DHT22;15734;50.904;6.922;2023-07-13T09:08:00;20.40;99.90
28524;DHT22;15734;50.904;6.922;2023-07-13T09:10:30;20.50;99.90
28524;DHT22;15734;50.904;6.922;2023-07-13T09:16:01;20.40;99.90
28524;DHT22;15734;50.904;6.922;2023-07-13T09:18:35;20.50;99.90
28524;DHT22;15734;50.904;6.922;2023-07-13T09:21:09;20.60;99.90
28524;DHT22;15734;50.904;6.922;2023-07-13T09:23:35;20.60;99.90
28524;DHT22;15734;50.904;6.922;2023-07-13T09:28:42;20.90;99.90
28524;DHT22;15734;50.904;6.922;2023-07-13T09:31:33;21.10;99.90
28524;DHT22;15734;50.904;6.922;2023-07-13T09:33:59;21.30;99.90
28524;DHT22;15734;50.904;6.922;2023-07-13T09:36:28;21.20;99.90
28524;DHT22;15734;50.904;6.922;2023-07-13T09:39:13;21.20;99.90
28524;DHT22;15734;50.904;6.922;2023-07-13T09:44:38;21.50;99.90
28524;DHT22;15734;50.904;6.922;2023-07-13T09:47:16;21.60;99.90
28524;DHT22;15734;50.904;6.922;2023-07-13T09:49:42;21.70;99.90
28524;DHT22;15734;50.904;6.922;2023-07-13T09:52:12;21.90;99.90
28524;DHT22;15734;50.904;6.922;2023-07-13T09:54:39;21.80;99.90
28524;DHT22;15734;50.904;6.922;2023-07-13T09:57:23;21.90;99.90
28524;DHT22;15734;50.904;6.922;2023-07-13T09:59:53;21.90;99.90
28524;DHT22;15734;50.904;6.922;2023-07-13T10:04:57;22.00;99.90
28524;DHT22;15734;50.904;6.922;2023-07-13T10:07:24;21.80;99.90
28524;DHT22;15734;50.904;6.922;2023-07-13T10:09:56;21.60;99.90
28524;DHT22;15734;50.904;6.922;2023-07-13T10:12:23;21.60;99.90
28524;DHT22;15734;50.904;6.922;2023-07-13T10:14:52;21.80;99.90
28524;DHT22;15734;50.904;6.922;2023-07-13T10:17:27;22.00;99.90
28524;DHT22;15734;50.904;6.922;2023-07-13T10:19:58;22.20;99.90
28524;DHT22;15734;50.904;6.922;2023-07-13T10:22:37;22.80;99.90
28524;DHT22;15734;50.904;6.922;2023-07-13T10:25:18;23.40;99.90
28524;DHT22;15734;50.904;6.922;2023-07-13T10:27:45;23.10;99.90
28524;DHT22;15734;50.904;6.922;2023-07-13T10:30:23;23.20;99.90
28524;DHT22;15734;50.904;6.922;2023-07-13T10:32:51;23.20;99.90
28524;DHT22;15734;50.904;6.922;2023-07-13T10:35:19;23.40;99.90
28524;DHT22;15734;50.904;6.922;2023-07-13T10:40:27;23.30;99.90
28524;DHT22;15734;50.904;6.922;2023-07-13T10:42:57;23.70;99.90
28524;DHT22;15734;50.904;6.922;2023-07-13T10:45:24;24.20;99.90
28524;DHT22;15734;50.904;6.922;2023-07-13T10:47:53;24.40;99.90
28524;DHT22;15734;50.904;6.922;2023-07-13T10:50:25;24.30;99.90
28524;DHT22;15734;50.904;6.922;2023-07-13T10:52:55;24.10;99.90
28524;DHT22;15734;50.904;6.922;2023-07-13T10:58:28;23.30;99.90
28524;DHT22;15734;50.904;6.922;2023-07-13T11:01:04;23.40;99.90
28524;DHT22;15734;50.904;6.922;2023-07-13T11:03:35;23.80;99.90
28524;DHT22;15734;50.904;6.922;2023-07-13T11:08:57;23.40;99.90
28524;DHT22;15734;50.904;6.922;2023-07-13T11:18:49;22.80;99.90
28524;DHT22;15734;50.904;6.922;2023-07-13T11:23:52;22.70;99.90
28524;DHT22;15734;50.904;6.922;2023-07-13T11:31:59;22.80;99.90
28524;DHT22;15734;50.904;6.922;2023-07-13T11:34:34;23.00;99.90
28524;DHT22;15734;50.904;6.922;2023-07-13T11:37:01;22.80;99.90
28524;DHT22;15734;50.904;6.922;2023-07-13T11:39:35;22.60;99.90
28524;DHT22;15734;50.904;6.922;2023-07-13T11:42:05;22.50;99.90
28524;DHT22;15734;50.904;6.922;2023-07-13T11:44:33;22.20;99.90
28524;DHT22;15734;50.904;6.922;2023-07-13T11:47:09;22.30;99.90
28524;DHT22;15734;50.904;6.922;2023-07-13T11:49:48;22.40;99.90
28524;DHT22;15734;50.904;6.922;2023-07-13T11:52:17;22.40;99.90
28524;DHT22;15734;50.904;6.922;2023-07-13T11:54:49;22.60;99.90
28524;DHT22;15734;50.904;6.922;2023-07-13T11:57:29;22.80;99.90
28524;DHT22;15734;50.904;6.922;2023-07-13T11:59:58;22.80;99.90
28524;DHT22;15734;50.904;6.922;2023-07-13T12:02:36;22.70;99.90
28524;DHT22;15734;50.904;6.922;2023-07-13T12:05:04;22.60;99.90
28524;DHT22;15734;50.904;6.922;2023-07-13T12:07:32;22.50;99.90
28524;DHT22;15734;50.904;6.922;2023-07-13T12:10:25;22.60;99.90
28524;DHT22;15734;50.904;6.922;2023-07-13T12:13:00;22.70;99.90
28524;DHT22;15734;50.904;6.922;2023-07-13T12:15:44;22.60;99.90
28524;DHT22;15734;50.904;6.922;2023-07-13T12:18:23;22.50;99.90
28524;DHT22;15734;50.904;6.922;2023-07-13T12:20:57;22.50;99.90
28524;DHT22;15734;50.904;6.922;2023-07-13T12:25:55;22.60;99.90
28524;DHT22;15734;50.904;6.922;2023-07-13T12:28:28;22.70;99.90
28524;DHT22;15734;50.904;6.922;2023-07-13T12:30:59;22.80;99.90
28524;DHT22;15734;50.904;6.922;2023-07-13T12:33:28;22.90;99.90
28524;DHT22;15734;50.904;6.922;2023-07-13T12:35:54;22.90;99.90
28524;DHT22;15734;50.904;6.922;2023-07-13T12:38:21;22.90;99.90
28524;DHT22;15734;50.904;6.922;2023-07-13T12:40:49;22.90;99.90
28524;DHT22;15734;50.904;6.922;2023-07-13T12:43:16;22.90;99.90
28524;DHT22;15734;50.904;6.922;2023-07-13T12:46:02;22.80;99.90
28524;DHT22;15734;50.904;6.922;2023-07-13T12:48:28;22.80;99.90
28524;DHT22;15734;50.904;6.922;2023-07-13T12:50:55;22.80;99.90
28524;DHT22;15734;50.904;6.922;2023-07-13T12:53:28;22.90;99.90
28524;DHT22;15734;50.904;6.922;2023-07-13T12:55:58;23.00;99.90
28524;DHT22;15734;50.904;6.922;2023-07-13T12:58:35;22.90;99.90
28524;DHT22;15734;50.904;6.922;2023-07-13T13:01:02;23.00;99.90
28524;DHT22;15734;50.904;6.922;2023-07-13T13:08:31;23.70;99.90
28524;DHT22;15734;50.904;6.922;2023-07-13T13:10:56;24.40;99.90
28524;DHT22;15734;50.904;6.922;2023-07-13T13:13:22;24.90;99.90
28524;DHT22;15734;50.904;6.922;2023-07-13T13:15:47;25.10;99.90
28524;DHT22;15734;50.904;6.922;2023-07-13T13:18:18;25.20;98.10
28524;DHT22;15734;50.904;6.922;2023-07-13T13:20:44;25.20;98.00
28524;DHT22;15734;50.904;6.922;2023-07-13T13:23:14;25.10;97.40
28524;DHT22;15734;50.904;6.922;2023-07-13T13:25:42;25.00;97.90
28524;DHT22;15734;50.904;6.922;2023-07-13T13:28:16;25.20;98.90
28524;DHT22;15734;50.904;6.922;2023-07-13T13:30:43;25.50;97.20
28524;DHT22;15734;50.904;6.922;2023-07-13T13:33:16;25.90;96.70
28524;DHT22;15734;50.904;6.922;2023-07-13T13:35:42;26.10;95.80
28524;DHT22;15734;50.904;6.922;2023-07-13T13:38:13;26.10;95.80
28524;DHT22;15734;50.904;6.922;2023-07-13T13:40:43;26.50;95.20
28524;DHT22;15734;50.904;6.922;2023-07-13T13:43:17;26.30;94.40
28524;DHT22;15734;50.904;6.922;2023-07-13T13:45:44;26.40;94.70
28524;DHT22;15734;50.904;6.922;2023-07-13T13:48:21;26.50;93.70
28524;DHT22;15734;50.904;6.922;2023-07-13T13:50:52;26.50;93.20
28524;DHT22;15734;50.904;6.922;2023-07-13T13:53:18;26.60;92.80
28524;DHT22;15734;50.904;6.922;2023-07-13T13:55:44;26.70;93.00
28524;DHT22;15734;50.904;6.922;2023-07-13T13:58:10;26.70;91.90
28524;DHT22;15734;50.904;6.922;2023-07-13T14:00:39;26.00;92.10
28524;DHT22;15734;50.904;6.922;2023-07-13T14:03:05;26.00;92.90
28524;DHT22;15734;50.904;6.922;2023-07-13T14:05:33;25.50;93.20
28524;DHT22;15734;50.904;6.922;2023-07-13T14:07:59;25.60;94.10
28524;DHT22;15734;50.904;6.922;2023-07-13T14:10:25;26.00;92.70
28524;DHT22;15734;50.904;6.922;2023-07-13T14:12:53;26.00;92.40
28524;DHT22;15734;50.904;6.922;2023-07-13T14:15:25;25.70;93.00
28524;DHT22;15734;50.904;6.922;2023-07-13T14:17:51;25.80;93.40
28524;DHT22;15734;50.904;6.922;2023-07-13T14:20:19;25.80;93.40
28524;DHT22;15734;50.904;6.922;2023-07-13T14:22:46;26.30;93.40
28524;DHT22;15734;50.904;6.922;2023-07-13T14:25:13;26.10;91.70
28524;DHT22;15734;50.904;6.922;2023-07-13T14:27:39;26.00;91.70
28524;DHT22;15734;50.904;6.922;2023-07-13T14:30:24;26.30;91.90
28524;DHT22;15734;50.904;6.922;2023-07-13T14:32:50;26.50;91.70
28524;DHT22;15734;50.904;6.922;2023-07-13T14:35:17;26.30;90.60
28524;DHT22;15734;50.904;6.922;2023-07-13T14:37:43;26.30;90.60
28524;DHT22;15734;50.904;6.922;2023-07-13T14:42:38;26.60;91.40
28524;DHT22;15734;50.904;6.922;2023-07-13T14:45:04;26.50;90.60
28524;DHT22;15734;50.904;6.922;2023-07-13T14:47:30;26.60;90.70
28524;DHT22;15734;50.904;6.922;2023-07-13T14:49:56;26.50;90.90
28524;DHT22;15734;50.904;6.922;2023-07-13T14:52:23;26.10;91.10
28524;DHT22;15734;50.904;6.922;2023-07-13T14:54:50;26.40;90.90
28524;DHT22;15734;50.904;6.922;2023-07-13T14:57:20;26.50;90.60
28524;DHT22;15734;50.904;6.922;2023-07-13T14:59:46;26.40;90.30
28524;DHT22;15734;50.904;6.922;2023-07-13T15:02:32;26.20;90.10
28524;DHT22;15734;50.904;6.922;2023-07-13T15:04:58;26.40;90.00
28524;DHT22;15734;50.904;6.922;2023-07-13T15:07:24;26.70;90.30
28524;DHT22;15734;50.904;6.922;2023-07-13T15:09:50;26.80;88.60
28524;DHT22;15734;50.904;6.922;2023-07-13T15:12:18;26.90;89.20
28524;DHT22;15734;50.904;6.922;2023-07-13T15:14:45;27.00;88.60
28524;DHT22;15734;50.904;6.922;2023-07-13T15:17:31;26.80;86.90
28524;DHT22;15734;50.904;6.922;2023-07-13T15:19:57;26.80;87.20
28524;DHT22;15734;50.904;6.922;2023-07-13T15:22:24;26.60;87.10
28524;DHT22;15734;50.904;6.922;2023-07-13T15:24:49;26.80;87.40
28524;DHT22;15734;50.904;6.922;2023-07-13T15:27:15;26.60;85.50
28524;DHT22;15734;50.904;6.922;2023-07-13T15:29:41;26.70;85.60
28524;DHT22;15734;50.904;6.922;2023-07-13T15:32:17;26.80;86.10
28524;DHT22;15734;50.904;6.922;2023-07-13T15:34:44;26.80;85.30
28524;DHT22;15734;50.904;6.922;2023-07-13T15:37:14;26.80;85.70
28524;DHT22;15734;50.904;6.922;2023-07-13T15:39:41;26.50;86.60
28524;DHT22;15734;50.904;6.922;2023-07-13T15:42:16;26.60;87.20
28524;DHT22;15734;50.904;6.922;2023-07-13T15:44:41;26.30;88.20
28524;DHT22;15734;50.904;6.922;2023-07-13T15:47:11;26.30;88.60
28524;DHT22;15734;50.904;6.922;2023-07-13T15:49:39;26.20;88.70
28524;DHT22;15734;50.904;6.922;2023-07-13T15:52:05;25.90;89.50
28524;DHT22;15734;50.904;6.922;2023-07-13T15:54:31;25.50;90.00
28524;DHT22;15734;50.904;6.922;2023-07-13T15:57:00;25.10;90.70
28524;DHT22;15734;50.904;6.922;2023-07-13T15:59:26;24.70;91.70
28524;DHT22;15734;50.904;6.922;2023-07-13T16:01:52;24.50;92.20
28524;DHT22;15734;50.904;6.922;2023-07-13T16:04:17;24.20;93.70
28524;DHT22;15734;50.904;6.922;2023-07-13T16:06:45;24.00;94.80
28524;DHT22;15734;50.904;6.922;2023-07-13T16:09:20;23.80;96.20
28524;DHT22;15734;50.904;6.922;2023-07-13T16:11:47;23.60;98.00
28524;DHT22;15734;50.904;6.922;2023-07-13T16:14:14;23.40;99.90
28524;DHT22;15734;50.904;6.922;2023-07-13T16:16:41;23.10;99.90
28524;DHT22;15734;50.904;6.922;2023-07-13T16:19:08;23.00;99.90
28524;DHT22;15734;50.904;6.922;2023-07-13T16:21:44;22.90;99.90
28524;DHT22;15734;50.904;6.922;2023-07-13T16:24:19;22.80;99.90
28524;DHT22;15734;50.904;6.922;2023-07-13T16:26:46;22.80;99.90